createdAt,value
2019-04-14T00:01:41.267Z,4.93
2019-04-14T00:04:22.642Z,4.96
2019-04-14T00:06:54.760Z,5.01
2019-04-14T00:09:27.228Z,4.97
2019-04-14T00:11:59.069Z,5.00
2019-04-14T00:14:31.492Z,5.06
2019-04-14T00:17:02.793Z,5.07
2019-04-14T00:19:39.152Z,5.05
2019-04-14T00:22:11.663Z,5.07
2019-04-14T00:24:44.563Z,5.06
2019-04-14T00:27:17.172Z,5.00
2019-04-14T00:29:48.600Z,4.99
2019-04-14T00:32:20.520Z,4.97
2019-04-14T00:35:14.654Z,4.96
2019-04-14T00:38:08.471Z,5.04
2019-04-14T00:40:45.497Z,5.03
2019-04-14T00:43:30.980Z,4.98
2019-04-14T00:46:08.009Z,5.03
2019-04-14T00:48:39.493Z,5.10
2019-04-14T00:51:11.293Z,5.02
2019-04-14T00:53:44.597Z,5.01
2019-04-14T00:56:17.219Z,5.06
2019-04-14T00:58:49.752Z,5.07
2019-04-14T01:01:21.935Z,5.11
2019-04-14T01:03:54.789Z,5.14
2019-04-14T01:06:27.319Z,5.12
2019-04-14T01:08:59.975Z,5.02
2019-04-14T01:11:34.072Z,4.96
2019-04-14T01:14:06.581Z,4.83
2019-04-14T01:16:38.611Z,4.81
2019-04-14T01:19:11.246Z,4.78
2019-04-14T01:21:43.620Z,4.84
2019-04-14T01:24:16.845Z,4.94
2019-04-14T01:26:48.545Z,5.12
2019-04-14T01:29:20.974Z,5.08
2019-04-14T01:31:53.553Z,5.10
2019-04-14T01:34:26.050Z,5.16
2019-04-14T01:36:58.680Z,5.22
2019-04-14T01:39:31.147Z,5.30
2019-04-14T01:42:03.082Z,5.26
2019-04-14T01:44:35.394Z,5.40
2019-04-14T01:47:07.367Z,5.47
2019-04-14T01:49:39.724Z,5.49
2019-04-14T01:52:34.135Z,5.41
2019-04-14T01:55:42.571Z,5.34
2019-04-14T01:58:16.938Z,5.25
2019-04-14T02:00:55.465Z,5.25
2019-04-14T02:03:28.096Z,5.25
2019-04-14T02:06:00.362Z,5.37
2019-04-14T02:08:32.910Z,5.40
2019-04-14T02:11:05.226Z,5.40
2019-04-14T02:13:37.537Z,5.62
2019-04-14T02:16:18.541Z,5.58
2019-04-14T02:18:42.993Z,5.52
2019-04-14T02:21:15.035Z,5.50
2019-04-14T02:23:47.528Z,5.45
2019-04-14T02:26:22.040Z,5.56
2019-04-14T02:28:54.986Z,5.52
2019-04-14T02:31:56.226Z,5.54
2019-04-14T02:34:34.740Z,5.58
2019-04-14T02:37:04.849Z,5.63
2019-04-14T02:42:24.404Z,5.58
2019-04-14T02:47:48.860Z,5.54
2019-04-14T02:52:19.945Z,5.77
2019-04-14T02:54:59.572Z,5.70
2019-04-14T03:00:03.350Z,5.68
2019-04-14T03:05:02.521Z,5.64
2019-04-14T03:07:37.873Z,5.62
2019-04-14T03:10:12.546Z,5.54
2019-04-14T03:12:54.579Z,5.60
2019-04-14T03:15:28.017Z,5.61
2019-04-14T03:18:16.494Z,5.67
2019-04-14T03:20:55.623Z,5.72
2019-04-14T03:23:40.674Z,5.78
2019-04-14T03:26:27.079Z,5.85
2019-04-14T03:29:08.194Z,5.90
2019-04-14T03:34:34.545Z,5.51
2019-04-14T03:39:26.063Z,5.69
2019-04-14T03:42:01.038Z,5.72
2019-04-14T03:47:05.516Z,5.72
2019-04-14T03:49:37.405Z,5.80
2019-04-14T03:52:03.719Z,5.77
2019-04-14T03:54:35.673Z,5.92
2019-04-14T03:56:53.635Z,5.86
2019-04-14T03:59:26.135Z,5.72
2019-04-14T04:01:58.581Z,5.89
2019-04-14T04:04:33.662Z,5.75
2019-04-14T04:07:06.213Z,5.77
2019-04-14T04:09:45.464Z,5.75
2019-04-14T04:12:18.162Z,5.78
2019-04-14T04:14:50.974Z,5.56
2019-04-14T04:17:38.843Z,5.70
2019-04-14T04:20:22.329Z,5.65
2019-04-14T04:23:09.608Z,5.76
2019-04-14T04:25:59.537Z,5.68
2019-04-14T04:29:05.422Z,5.74
2019-04-14T04:31:48.247Z,5.72
2019-04-14T04:34:42.331Z,5.51
2019-04-14T04:37:34.126Z,5.54
2019-04-14T04:40:15.706Z,5.53
2019-04-14T04:42:48.289Z,5.49
2019-04-14T04:45:19.741Z,5.37
2019-04-14T04:47:53.662Z,5.33
2019-04-14T04:50:25.998Z,5.42
2019-04-14T04:52:58.290Z,5.40
2019-04-14T04:55:30.609Z,5.37
2019-04-14T04:58:01.934Z,5.38
2019-04-14T05:00:33.287Z,5.42
2019-04-14T05:03:05.760Z,5.35
2019-04-14T05:06:13.344Z,5.38
2019-04-14T05:08:50.278Z,5.33
2019-04-14T05:11:33.686Z,5.25
2019-04-14T05:14:13.066Z,5.37
2019-04-14T05:16:44.174Z,5.34
2019-04-14T05:19:24.752Z,5.30
2019-04-14T05:21:49.513Z,5.25
2019-04-14T05:24:22.246Z,5.24
2019-04-14T05:26:54.803Z,5.04
2019-04-14T05:29:27.540Z,5.06
2019-04-14T05:32:00.063Z,5.01
2019-04-14T05:34:32.638Z,5.00
2019-04-14T05:37:05.289Z,5.02
2019-04-14T05:39:39.632Z,5.05
2019-04-14T05:42:14.898Z,5.05
2019-04-14T05:44:44.788Z,4.85
2019-04-14T05:47:17.514Z,4.96
2019-04-14T05:49:54.969Z,4.98
2019-04-14T05:52:25.570Z,5.01
2019-04-14T05:54:57.943Z,4.96
2019-04-14T05:57:29.145Z,4.99
2019-04-14T06:00:01.644Z,4.80
2019-04-14T06:02:36.113Z,4.65
2019-04-14T06:05:09.217Z,4.68
2019-04-14T06:07:41.176Z,4.71
2019-04-14T06:10:13.538Z,4.69
2019-04-14T06:12:44.778Z,4.73
2019-04-14T06:15:19.507Z,4.78
2019-04-14T06:17:50.842Z,4.85
2019-04-14T06:20:22.161Z,4.86
2019-04-14T06:22:53.425Z,4.87
2019-04-14T06:25:25.268Z,4.79
2019-04-14T06:27:56.565Z,4.77
2019-04-14T06:30:48.423Z,4.84
2019-04-14T06:33:32.213Z,4.86
2019-04-14T06:36:25.168Z,4.79
2019-04-14T06:39:11.437Z,4.84
2019-04-14T06:41:42.651Z,4.91
2019-04-14T06:44:13.943Z,4.88
2019-04-14T06:46:46.006Z,4.96
2019-04-14T06:49:17.487Z,4.95
2019-04-14T06:51:50.428Z,4.99
2019-04-14T06:54:22.355Z,5.00
2019-04-14T06:56:53.854Z,5.03
2019-04-14T06:59:27.059Z,5.18
2019-04-14T07:02:01.518Z,5.23
2019-04-14T07:04:31.416Z,5.30
2019-04-14T07:07:05.888Z,5.40
2019-04-14T07:09:39.304Z,5.53
2019-04-14T07:12:11.390Z,5.51
2019-04-14T07:14:43.015Z,5.64
2019-04-14T07:17:15.855Z,5.64
2019-04-14T07:20:01.398Z,5.66
2019-04-14T07:22:23.124Z,5.73
2019-04-14T07:24:54.895Z,5.75
2019-04-14T07:27:27.198Z,5.85
2019-04-14T07:30:04.794Z,5.87
2019-04-14T07:33:06.248Z,6.00
2019-04-14T07:35:53.187Z,5.92
2019-04-14T07:38:46.515Z,5.99
2019-04-14T07:41:42.752Z,6.07
2019-04-14T07:44:32.009Z,6.01
2019-04-14T07:47:16.396Z,6.12
2019-04-14T07:49:57.625Z,6.06
2019-04-14T07:52:38.172Z,5.97
2019-04-14T07:55:34.553Z,5.97
2019-04-14T07:58:43.122Z,6.00
2019-04-14T08:01:20.625Z,6.15
2019-04-14T08:04:16.240Z,6.08
2019-04-14T08:07:18.581Z,6.13
2019-04-14T08:09:50.614Z,6.17
2019-04-14T08:12:22.658Z,6.24
2019-04-14T08:14:55.844Z,6.33
2019-04-14T08:17:27.178Z,6.24
2019-04-14T08:19:58.622Z,6.40
2019-04-14T08:22:30.188Z,6.65
2019-04-14T08:25:01.944Z,6.69
2019-04-14T08:27:34.474Z,6.77
2019-04-14T08:30:08.043Z,6.67
2019-04-14T08:32:40.137Z,6.91
2019-04-14T08:35:11.783Z,7.32
2019-04-14T08:37:43.350Z,7.32
2019-04-14T08:40:14.957Z,7.58
2019-04-14T08:43:12.180Z,7.30
2019-04-14T08:45:51.996Z,7.32
2019-04-14T08:48:35.741Z,6.87
2019-04-14T08:51:29.074Z,6.96
2019-04-14T08:54:09.043Z,6.99
2019-04-14T08:56:59.089Z,6.76
2019-04-14T08:59:49.328Z,6.78
2019-04-14T09:02:40.524Z,6.63
2019-04-14T09:05:30.416Z,6.69
2019-04-14T09:08:38.536Z,6.65
2019-04-14T09:11:10.029Z,6.71
2019-04-14T09:13:42.091Z,6.76
2019-04-14T09:16:14.291Z,6.76
2019-04-14T09:18:45.795Z,6.70
2019-04-14T09:21:18.354Z,6.72
2019-04-14T09:23:49.915Z,6.68
2019-04-14T09:26:21.329Z,6.75
2019-04-14T09:28:53.522Z,6.67
2019-04-14T09:31:24.938Z,6.82
2019-04-14T09:33:56.162Z,6.76
2019-04-14T09:36:27.500Z,6.77
2019-04-14T09:38:58.924Z,6.74
2019-04-14T09:41:30.923Z,6.63
2019-04-14T09:44:02.703Z,6.72
2019-04-14T09:46:34.357Z,6.63
2019-04-14T09:49:06.598Z,6.59
2019-04-14T09:51:38.224Z,6.57
2019-04-14T09:54:09.557Z,6.66
2019-04-14T09:56:41.039Z,6.70
2019-04-14T09:59:12.392Z,6.76
2019-04-14T10:01:43.781Z,6.76
2019-04-14T10:04:16.938Z,6.78
2019-04-14T10:06:48.665Z,6.60
2019-04-14T10:09:20.099Z,6.60
2019-04-14T10:11:56.042Z,6.57
2019-04-14T10:14:24.681Z,6.44
2019-04-14T10:17:01.534Z,6.44
2019-04-14T10:19:33.168Z,6.38
2019-04-14T10:22:04.871Z,6.48
2019-04-14T10:24:36.182Z,6.45
2019-04-14T10:27:08.823Z,6.43
2019-04-14T10:29:40.421Z,6.50
2019-04-14T10:32:11.769Z,6.47
2019-04-14T10:34:43.147Z,6.42
2019-04-14T10:37:15.079Z,6.45
2019-04-14T10:39:46.420Z,6.43
2019-04-14T10:42:18.245Z,6.50
2019-04-14T10:44:49.874Z,6.53
2019-04-14T10:47:21.450Z,6.53
2019-04-14T10:49:52.780Z,6.56
2019-04-14T10:52:24.091Z,6.67
2019-04-14T10:54:55.369Z,6.76
2019-04-14T10:57:27.010Z,6.80
2019-04-14T10:59:58.374Z,6.73
2019-04-14T11:02:30.275Z,6.78
2019-04-14T11:05:01.809Z,6.90
2019-04-14T11:07:33.855Z,6.93
2019-04-14T11:10:07.430Z,6.93
2019-04-14T11:12:41.879Z,7.06
2019-04-14T11:15:15.494Z,7.12
2019-04-14T11:17:49.023Z,7.18
2019-04-14T11:20:21.129Z,7.21
2019-04-14T11:23:03.286Z,7.28
2019-04-14T11:25:27.100Z,7.22
2019-04-14T11:27:58.714Z,7.31
2019-04-14T11:30:31.023Z,7.25
2019-04-14T11:33:11.493Z,7.29
2019-04-14T11:36:05.546Z,7.22
2019-04-14T11:38:40.887Z,7.26
2019-04-14T11:41:15.701Z,7.19
2019-04-14T11:43:47.347Z,7.21
2019-04-14T11:46:18.922Z,7.31
2019-04-14T11:48:51.266Z,7.38
2019-04-14T11:51:24.284Z,7.42
2019-04-14T11:53:55.865Z,7.38
2019-04-14T11:56:27.530Z,7.36
2019-04-14T11:58:58.919Z,7.30
2019-04-14T12:01:49.575Z,7.41
2019-04-14T12:04:25.313Z,7.39
2019-04-14T12:07:05.467Z,7.41
2019-04-14T12:10:01.965Z,7.47
2019-04-14T12:12:33.438Z,7.45
2019-04-14T12:15:07.601Z,7.41
2019-04-14T12:20:06.528Z,7.63
2019-04-14T12:22:37.858Z,7.63
2019-04-14T12:25:09.519Z,7.73
2019-04-14T12:27:41.980Z,7.69
2019-04-14T12:30:14.025Z,7.66
2019-04-14T12:32:45.582Z,7.72
2019-04-14T12:35:19.079Z,7.72
2019-04-14T12:37:51.739Z,7.71
2019-04-14T12:40:24.175Z,7.89
2019-04-14T12:43:17.842Z,7.80
2019-04-14T12:46:12.360Z,7.90
2019-04-14T12:49:00.121Z,8.07
2019-04-14T12:51:38.006Z,8.13
2019-04-14T12:54:09.434Z,8.09
2019-04-14T12:57:47.942Z,7.93
2019-04-14T13:00:26.839Z,7.87
2019-04-14T13:02:59.874Z,8.05
2019-04-14T13:05:31.392Z,8.19
2019-04-14T13:08:05.443Z,8.17
2019-04-14T13:10:37.300Z,8.24
2019-04-14T13:13:08.930Z,8.39
2019-04-14T13:15:51.694Z,8.09
2019-04-14T13:18:23.551Z,8.02
2019-04-14T13:20:55.980Z,8.12
2019-04-14T13:23:30.704Z,8.11
2019-04-14T13:26:02.609Z,8.30
2019-04-14T13:28:34.751Z,8.32
2019-04-14T13:31:06.878Z,8.26
2019-04-14T13:33:39.694Z,8.28
2019-04-14T13:36:14.517Z,8.26
2019-04-14T13:38:46.356Z,8.26
2019-04-14T13:41:19.406Z,8.39
2019-04-14T13:43:54.510Z,8.41
2019-04-14T13:46:35.559Z,8.44
2019-04-14T13:49:27.383Z,8.51
2019-04-14T13:52:02.930Z,8.60
2019-04-14T13:54:35.399Z,8.63
2019-04-14T13:57:10.948Z,8.37
2019-04-14T13:59:42.803Z,8.37
2019-04-14T14:02:14.796Z,8.37
2019-04-14T14:04:46.938Z,8.39
2019-04-14T14:07:21.502Z,8.41
2019-04-14T14:09:53.432Z,8.40
2019-04-14T14:12:46.013Z,8.38
2019-04-14T14:15:41.414Z,8.37
2019-04-14T14:18:57.542Z,8.39
2019-04-14T14:22:07.949Z,8.43
2019-04-14T14:24:51.274Z,8.27
2019-04-14T14:27:32.616Z,8.26
2019-04-14T14:30:05.351Z,8.28
2019-04-14T14:32:37.906Z,8.38
2019-04-14T14:35:10.166Z,8.39
2019-04-14T14:37:42.010Z,8.46
2019-04-14T14:40:13.808Z,8.46
2019-04-14T14:42:45.723Z,8.43
2019-04-14T14:45:37.756Z,8.48
2019-04-14T14:48:21.237Z,8.41
2019-04-14T14:50:57.247Z,8.57
2019-04-14T14:53:30.838Z,8.46
2019-04-14T14:56:03.144Z,8.50
2019-04-14T14:58:35.731Z,8.47
2019-04-14T15:01:09.566Z,8.45
2019-04-14T15:03:42.112Z,8.43
2019-04-14T15:06:15.286Z,8.46
2019-04-14T15:08:47.360Z,8.46
2019-04-14T15:11:21.198Z,8.54
2019-04-14T15:13:53.459Z,8.55
2019-04-14T15:16:25.867Z,8.50
2019-04-14T15:18:57.325Z,8.52
2019-04-14T15:21:30.574Z,8.53
2019-04-14T15:24:04.071Z,8.58
2019-04-14T15:26:36.065Z,8.70
2019-04-14T15:29:08.886Z,8.51
2019-04-14T15:31:40.584Z,8.60
2019-04-14T15:34:12.425Z,8.66
2019-04-14T15:36:45.810Z,8.50
2019-04-14T15:39:17.190Z,8.53
2019-04-14T15:41:49.146Z,8.52
2019-04-14T15:44:21.683Z,8.51
2019-04-14T15:46:53.223Z,8.61
2019-04-14T15:49:24.837Z,8.57
2019-04-14T15:51:59.781Z,8.70
2019-04-14T15:54:33.548Z,8.61
2019-04-14T15:57:17.880Z,8.60
2019-04-14T16:00:07.481Z,8.46
2019-04-14T16:03:02.155Z,8.58
2019-04-14T16:05:53.624Z,8.49
2019-04-14T16:08:50.872Z,8.62
2019-04-14T16:11:35.896Z,8.69
2019-04-14T16:14:26.422Z,8.65
2019-04-14T16:17:21.875Z,8.61
2019-04-14T16:20:02.276Z,8.62
2019-04-14T16:22:35.670Z,8.60
2019-04-14T16:25:07.600Z,8.49
2019-04-14T16:28:04.533Z,8.43
2019-04-14T16:30:49.098Z,8.38
2019-04-14T16:33:26.049Z,8.31
2019-04-14T16:35:58.600Z,8.28
2019-04-14T16:38:33.853Z,8.28
2019-04-14T16:41:05.942Z,8.28
2019-04-14T16:43:37.747Z,8.16
2019-04-14T16:46:09.376Z,8.27
2019-04-14T16:48:41.032Z,8.25
2019-04-14T16:51:17.729Z,8.24
2019-04-14T16:53:49.559Z,8.27
2019-04-14T16:56:38.867Z,8.17
2019-04-14T16:59:15.165Z,8.14
2019-04-14T17:01:48.491Z,8.06
2019-04-14T17:04:20.150Z,8.07
2019-04-14T17:06:51.929Z,7.98
2019-04-14T17:09:24.324Z,7.97
2019-04-14T17:11:59.240Z,7.88
2019-04-14T17:14:52.959Z,7.84
2019-04-14T17:17:43.550Z,7.79
2019-04-14T17:20:41.626Z,7.66
2019-04-14T17:23:31.947Z,7.75
2019-04-14T17:26:14.267Z,7.84
2019-04-14T17:29:20.877Z,7.69
2019-04-14T17:32:19.170Z,7.72
2019-04-14T17:35:10.614Z,7.66
2019-04-14T17:37:51.060Z,7.67
2019-04-14T17:40:43.370Z,7.67
2019-04-14T17:43:28.237Z,7.59
2019-04-14T17:46:11.824Z,7.50
2019-04-14T17:49:01.726Z,7.51
2019-04-14T17:51:38.298Z,7.41
2019-04-14T17:54:29.741Z,7.39
2019-04-14T17:57:33.124Z,7.46
2019-04-14T18:00:28.359Z,7.35
2019-04-14T18:03:04.125Z,7.33
2019-04-14T18:05:48.338Z,7.28
2019-04-14T18:08:39.865Z,7.24
2019-04-14T18:11:20.531Z,7.28
2019-04-14T18:14:18.722Z,7.27
2019-04-14T18:17:09.909Z,7.25
2019-04-14T18:19:55.312Z,7.22
2019-04-14T18:22:29.480Z,7.28
2019-04-14T18:25:01.024Z,7.22
2019-04-14T18:27:35.634Z,7.24
2019-04-14T18:30:19.384Z,7.34
2019-04-14T18:33:03.528Z,7.29
2019-04-14T18:36:03.106Z,7.15
2019-04-14T18:38:59.682Z,7.23
2019-04-14T18:41:47.860Z,7.19
2019-04-14T18:44:30.061Z,7.17
2019-04-14T18:47:26.349Z,7.05
2019-04-14T18:50:02.850Z,7.13
2019-04-14T18:52:52.091Z,7.10
2019-04-14T18:55:41.356Z,7.07
2019-04-14T18:58:34.008Z,7.05
2019-04-14T19:01:17.392Z,7.09
2019-04-14T19:03:49.946Z,7.09
2019-04-14T19:06:21.824Z,7.18
2019-04-14T19:08:53.822Z,7.25
2019-04-14T19:11:46.937Z,7.17
2019-04-14T19:14:25.464Z,7.13
2019-04-14T19:17:00.394Z,7.10
2019-04-14T19:19:33.624Z,7.21
2019-04-14T19:22:05.263Z,7.15
2019-04-14T19:24:36.865Z,7.11
2019-04-14T19:27:11.083Z,7.16
2019-04-14T19:29:42.501Z,7.15
2019-04-14T19:32:17.086Z,7.13
2019-04-14T19:34:48.325Z,7.12
2019-04-14T19:37:20.028Z,7.03
2019-04-14T19:39:51.247Z,6.96
2019-04-14T19:42:23.575Z,7.00
2019-04-14T19:44:56.532Z,7.09
2019-04-14T19:47:29.144Z,7.06
2019-04-14T19:50:03.391Z,7.08
2019-04-14T19:52:35.375Z,7.07
2019-04-14T19:55:19.509Z,6.98
2019-04-14T19:57:41.216Z,7.07
2019-04-14T20:00:14.044Z,7.09
2019-04-14T20:02:45.455Z,7.00
2019-04-14T20:05:20.052Z,6.96
2019-04-14T20:07:51.863Z,6.88
2019-04-14T20:10:32.675Z,6.82
2019-04-14T20:13:04.293Z,6.88
2019-04-14T20:15:55.567Z,6.86
2019-04-14T20:18:55.897Z,6.88
2019-04-14T20:21:48.188Z,6.80
2019-04-14T20:24:39.862Z,6.79
2019-04-14T20:27:33.426Z,6.80
2019-04-14T20:30:37.022Z,6.73
2019-04-14T20:33:09.655Z,6.69
2019-04-14T20:35:41.857Z,6.71
2019-04-14T20:38:13.400Z,6.63
2019-04-14T20:40:44.718Z,6.62
2019-04-14T20:43:17.501Z,6.71
2019-04-14T20:45:51.639Z,6.72
2019-04-14T20:48:22.863Z,6.71
2019-04-14T20:50:54.166Z,6.59
2019-04-14T20:53:26.027Z,6.60
2019-04-14T20:56:04.125Z,6.64
2019-04-14T20:58:35.520Z,6.63
2019-04-14T21:01:08.519Z,6.57
2019-04-14T21:04:00.035Z,6.54
2019-04-14T21:06:56.160Z,6.56
2019-04-14T21:09:49.888Z,6.58
2019-04-14T21:12:40.454Z,6.51
2019-04-14T21:15:24.961Z,6.57
2019-04-14T21:18:18.106Z,6.49
2019-04-14T21:20:56.097Z,6.49
2019-04-14T21:23:38.454Z,6.51
2019-04-14T21:26:21.734Z,6.59
2019-04-14T21:29:03.523Z,6.61
2019-04-14T21:31:52.189Z,6.54
2019-04-14T21:34:41.519Z,6.42
2019-04-14T21:37:22.564Z,6.38
2019-04-14T21:40:21.716Z,6.44
2019-04-14T21:42:52.919Z,6.45
2019-04-14T21:45:26.158Z,6.66
2019-04-14T21:47:57.478Z,6.60
2019-04-14T21:50:28.703Z,6.68
2019-04-14T21:52:59.978Z,6.60
2019-04-14T21:55:31.297Z,6.48
2019-04-14T21:58:32.877Z,6.42
2019-04-14T22:01:50.559Z,6.42
2019-04-14T22:04:46.303Z,6.39
2019-04-14T22:07:33.623Z,6.36
2019-04-14T22:10:32.158Z,6.47
2019-04-14T22:13:06.500Z,6.54
2019-04-14T22:15:39.388Z,6.60
2019-04-14T22:18:11.796Z,6.51
2019-04-14T22:20:43.584Z,6.51
2019-04-14T22:23:14.936Z,6.46
2019-04-14T22:25:46.141Z,6.55
2019-04-14T22:28:17.422Z,6.55
2019-04-14T22:30:49.883Z,6.44
2019-04-14T22:33:21.172Z,6.47
2019-04-14T22:35:52.381Z,6.51
2019-04-14T22:38:23.626Z,6.52
2019-04-14T22:40:54.909Z,6.53
2019-04-14T22:43:26.134Z,6.49
2019-04-14T22:48:13.356Z,6.50
2019-04-14T22:50:45.006Z,6.44
2019-04-14T22:53:16.573Z,6.41
2019-04-14T22:55:47.948Z,6.43
2019-04-14T22:58:19.128Z,6.53
2019-04-14T23:01:16.267Z,6.55
2019-04-14T23:03:57.911Z,6.53
2019-04-14T23:06:48.056Z,6.39
2019-04-14T23:09:26.986Z,6.36
2019-04-14T23:12:14.831Z,6.42
2019-04-14T23:14:54.344Z,6.40
2019-04-14T23:17:42.655Z,6.37
2019-04-14T23:20:37.397Z,6.39
2019-04-14T23:23:28.992Z,6.19
2019-04-14T23:26:00.193Z,6.18
2019-04-14T23:28:31.538Z,6.28
2019-04-14T23:31:02.782Z,6.35
2019-04-14T23:33:34.086Z,6.27
2019-04-14T23:36:06.417Z,6.24
2019-04-14T23:38:41.716Z,6.25
2019-04-14T23:41:12.922Z,6.28
2019-04-14T23:43:46.996Z,6.34
2019-04-14T23:46:18.492Z,6.17
2019-04-14T23:48:51.062Z,6.23
2019-04-14T23:51:22.385Z,6.17
2019-04-14T23:53:54.492Z,6.35
2019-04-14T23:56:29.338Z,6.37
2019-04-14T23:59:00.607Z,6.31
